createdAt,value
2023-03-05T00:04:31.690Z,10.43
2023-03-05T00:07:59.964Z,10.45
2023-03-05T00:21:06.214Z,10.43
2023-03-05T00:24:29.626Z,11.32
2023-03-05T00:52:12.816Z,11.63
2023-03-05T00:55:12.716Z,11.45
2023-03-05T00:58:06.408Z,11.80
2023-03-05T01:01:10.448Z,8.68
2023-03-05T01:04:02.228Z,7.65
2023-03-05T01:06:54.220Z,7.22
2023-03-05T01:09:49.028Z,7.25
2023-03-05T01:12:53.686Z,7.28
2023-03-05T01:19:07.792Z,7.03
2023-03-05T01:22:23.140Z,8.48
2023-03-05T01:25:26.367Z,7.15
2023-03-05T01:28:41.512Z,7.03
2023-03-05T01:32:11.763Z,6.82
2023-03-05T01:35:11.677Z,7.80
2023-03-05T01:39:29.495Z,6.85
2023-03-05T01:45:39.152Z,6.30
2023-03-05T01:52:32.496Z,5.95
2023-03-05T02:00:16.919Z,6.03
2023-03-05T02:04:00.286Z,5.80
2023-03-05T02:06:52.732Z,5.88
2023-03-05T02:10:24.590Z,6.40
2023-03-05T02:14:13.516Z,6.05
2023-03-05T02:17:22.193Z,6.05
2023-03-05T02:24:19.156Z,6.47
2023-03-05T02:27:21.023Z,7.25
2023-03-05T02:30:37.960Z,6.68
2023-03-05T02:33:35.113Z,7.68
2023-03-05T02:36:36.070Z,7.25
2023-03-05T02:39:31.997Z,6.82
2023-03-05T02:46:00.169Z,8.90
2023-03-05T02:49:04.306Z,8.38
2023-03-05T02:52:05.245Z,8.95
2023-03-05T02:55:07.255Z,8.85
2023-03-05T02:58:25.171Z,9.13
2023-03-05T03:01:21.841Z,9.57
2023-03-05T03:04:24.727Z,8.85
2023-03-05T03:08:12.400Z,8.93
2023-03-05T03:14:55.044Z,7.90
2023-03-05T03:17:57.495Z,7.93
2023-03-05T03:24:58.980Z,9.10
2023-03-05T03:27:58.045Z,9.02
2023-03-05T03:31:10.664Z,8.65
2023-03-05T03:34:27.710Z,8.25
2023-03-05T03:38:11.959Z,9.15
2023-03-05T03:45:03.047Z,6.63
2023-03-05T03:49:39.703Z,6.70
2023-03-05T03:52:37.606Z,5.68
2023-03-05T03:55:28.987Z,5.53
2023-03-05T03:58:23.372Z,5.65
2023-03-05T04:01:30.865Z,5.10
2023-03-05T04:04:48.765Z,5.38
2023-03-05T04:10:22.040Z,4.70
2023-03-05T04:13:13.364Z,4.50
2023-03-05T04:16:04.751Z,4.90
2023-03-05T04:19:13.783Z,4.45
2023-03-05T04:22:15.861Z,4.30
2023-03-05T04:25:46.169Z,4.80
2023-03-05T04:28:49.194Z,4.68
2023-03-05T04:31:49.290Z,4.72
2023-03-05T04:34:48.727Z,3.70
2023-03-05T04:37:38.942Z,4.40
2023-03-05T04:40:39.771Z,3.53
2023-03-05T04:43:28.489Z,4.00
2023-03-05T04:46:30.122Z,3.10
2023-03-05T04:49:32.918Z,3.22
2023-03-05T04:53:40.206Z,3.67
2023-03-05T05:00:01.911Z,3.10
2023-03-05T05:19:18.977Z,2.90
2023-03-05T05:33:49.981Z,2.80
2023-03-05T05:38:09.598Z,3.03
2023-03-05T05:41:12.864Z,2.10
2023-03-05T05:44:35.477Z,2.40
2023-03-05T05:47:33.386Z,2.40
2023-03-05T05:50:47.853Z,2.08
2023-03-05T05:53:36.476Z,2.70
2023-03-05T05:56:28.535Z,2.53
2023-03-05T05:59:20.481Z,2.33
2023-03-05T06:02:11.968Z,2.65
2023-03-05T06:05:02.601Z,2.50
2023-03-05T06:07:51.659Z,2.60
2023-03-05T06:10:40.215Z,2.80
2023-03-05T06:13:28.536Z,3.40
2023-03-05T06:16:21.402Z,3.13
2023-03-05T06:19:18.835Z,2.95
2023-03-05T06:22:07.256Z,4.00
2023-03-05T06:24:56.909Z,4.10
2023-03-05T06:27:45.305Z,3.55
2023-03-05T06:30:33.227Z,3.70
2023-03-05T06:33:32.441Z,4.18
2023-03-05T06:36:23.735Z,4.22
2023-03-05T06:39:12.363Z,3.28
2023-03-05T06:42:00.713Z,3.53
2023-03-05T06:44:51.041Z,3.55
2023-03-05T06:47:39.104Z,4.35
2023-03-05T06:50:29.394Z,4.40
2023-03-05T06:53:17.654Z,4.50
2023-03-05T06:56:06.201Z,4.95
2023-03-05T06:58:54.616Z,4.40
2023-03-05T07:01:44.126Z,4.18
2023-03-05T07:04:35.917Z,4.50
2023-03-05T07:07:28.950Z,5.28
2023-03-05T07:10:17.644Z,3.97
2023-03-05T07:13:05.880Z,5.47
2023-03-05T07:15:54.860Z,6.20
2023-03-05T07:18:43.484Z,5.45
2023-03-05T07:21:34.218Z,6.63
2023-03-05T07:24:24.530Z,7.40
2023-03-05T07:27:12.901Z,7.45
2023-03-05T07:30:06.608Z,9.43
2023-03-05T07:32:54.929Z,8.27
2023-03-05T07:35:45.606Z,8.45
2023-03-05T07:38:33.793Z,7.60
2023-03-05T07:41:23.662Z,7.57
2023-03-05T07:44:12.318Z,8.18
2023-03-05T07:47:00.768Z,8.70
2023-03-05T07:49:53.991Z,8.38
2023-03-05T07:52:42.208Z,9.65
2023-03-05T07:55:30.573Z,9.00
2023-03-05T07:58:21.095Z,10.18
2023-03-05T08:01:17.605Z,10.60
2023-03-05T08:04:08.577Z,9.48
2023-03-05T08:07:00.875Z,9.43
2023-03-05T08:09:48.985Z,10.00
2023-03-05T08:12:37.246Z,9.93
2023-03-05T08:15:25.608Z,10.70
2023-03-05T08:18:16.106Z,10.65
2023-03-05T08:21:05.052Z,9.85
2023-03-05T08:23:53.558Z,9.52
2023-03-05T08:26:42.141Z,10.07
2023-03-05T08:29:30.826Z,11.13
2023-03-05T08:32:21.936Z,10.70
2023-03-05T08:35:12.113Z,11.98
2023-03-05T08:38:00.236Z,9.60
2023-03-05T08:40:49.569Z,10.60
2023-03-05T08:43:37.659Z,10.60
2023-03-05T08:46:25.749Z,9.65
2023-03-05T08:49:18.174Z,9.77
2023-03-05T08:52:06.397Z,8.52
2023-03-05T08:54:54.677Z,9.32
2023-03-05T08:57:45.213Z,9.68
2023-03-05T09:00:36.383Z,9.20
2023-03-05T09:03:25.031Z,9.18
2023-03-05T09:06:13.346Z,10.07
2023-03-05T09:09:13.710Z,9.77
2023-03-05T09:12:02.917Z,9.80
2023-03-05T09:14:50.890Z,10.07
2023-03-05T09:17:41.797Z,10.15
2023-03-05T09:20:30.084Z,10.68
2023-03-05T09:23:18.526Z,10.05
2023-03-05T09:26:09.872Z,9.75
2023-03-05T09:28:58.377Z,10.32
2023-03-05T09:31:48.731Z,10.68
2023-03-05T09:34:36.832Z,10.25
2023-03-05T09:37:25.263Z,10.60
2023-03-05T09:40:18.929Z,9.98
2023-03-05T09:43:47.509Z,11.27
2023-03-05T09:46:53.343Z,10.88
2023-03-05T09:50:32.564Z,10.90
2023-03-05T09:54:15.159Z,10.45
2023-03-05T09:57:06.287Z,9.70
2023-03-05T10:00:25.956Z,9.70
2023-03-05T10:03:31.372Z,9.60
2023-03-05T10:06:29.604Z,9.60
2023-03-05T10:09:52.465Z,9.85
2023-03-05T10:13:04.239Z,9.50
2023-03-05T10:16:01.387Z,10.00
2023-03-05T10:19:28.352Z,7.70
2023-03-05T10:22:36.411Z,9.43
2023-03-05T10:26:28.885Z,8.32
2023-03-05T10:34:45.523Z,8.98
2023-03-05T10:50:19.974Z,11.40
2023-03-05T10:53:38.915Z,10.23
2023-03-05T10:56:29.926Z,9.45
2023-03-05T10:59:19.571Z,9.40
2023-03-05T11:02:09.255Z,6.97
2023-03-05T11:04:57.509Z,8.90
2023-03-05T11:07:45.575Z,9.38
2023-03-05T11:10:33.658Z,9.45
2023-03-05T11:13:29.817Z,8.45
2023-03-05T11:16:24.055Z,8.60
2023-03-05T11:19:30.212Z,9.30
2023-03-05T11:22:25.314Z,8.57
2023-03-05T11:25:21.842Z,10.60
2023-03-05T11:28:32.285Z,12.30
2023-03-05T11:31:28.928Z,13.90
2023-03-05T11:34:19.896Z,12.45
2023-03-05T11:37:22.832Z,10.27
2023-03-05T11:40:10.869Z,9.63
2023-03-05T11:43:05.507Z,10.57
2023-03-05T11:46:03.395Z,10.60
2023-03-05T11:48:54.453Z,9.73
2023-03-05T11:51:56.697Z,10.43
2023-03-05T11:55:52.632Z,9.52
2023-03-05T11:59:04.104Z,10.25
2023-03-05T12:01:55.801Z,10.48
2023-03-05T12:04:44.026Z,9.07
2023-03-05T12:07:48.291Z,9.48
2023-03-05T12:13:46.825Z,7.68
2023-03-05T12:17:04.830Z,7.97
2023-03-05T12:20:28.016Z,8.38
2023-03-05T12:23:22.095Z,7.70
2023-03-05T12:28:58.863Z,8.40
2023-03-05T12:31:46.959Z,8.77
2023-03-05T12:34:41.092Z,6.90
2023-03-05T12:40:29.677Z,7.10
2023-03-05T12:43:33.300Z,7.50
2023-03-05T12:46:29.139Z,6.93
2023-03-05T12:49:23.682Z,6.15
2023-03-05T12:52:33.928Z,6.90
2023-03-05T12:55:33.742Z,5.40
2023-03-05T12:58:46.182Z,5.78
2023-03-05T13:01:59.363Z,6.00
2023-03-05T13:04:48.709Z,4.60
2023-03-05T13:07:36.911Z,5.43
2023-03-05T13:10:29.181Z,5.30
2023-03-05T13:13:20.558Z,4.45
2023-03-05T13:16:29.761Z,4.85
2023-03-05T13:19:18.723Z,4.80
2023-03-05T13:22:11.912Z,4.85
2023-03-05T13:25:20.727Z,4.53
2023-03-05T13:28:15.218Z,4.70
2023-03-05T13:31:18.862Z,4.70
2023-03-05T13:34:16.585Z,3.92
2023-03-05T13:37:14.479Z,6.65
2023-03-05T13:40:24.050Z,4.03
2023-03-05T13:43:19.796Z,2.80
2023-03-05T13:46:10.489Z,4.15
2023-03-05T13:49:22.098Z,3.35
2023-03-05T13:52:10.743Z,3.28
2023-03-05T13:55:01.045Z,3.20
2023-03-05T13:57:53.458Z,3.33
2023-03-05T14:00:42.039Z,2.72
2023-03-05T14:03:30.199Z,2.90
2023-03-05T14:06:22.223Z,3.03
2023-03-05T14:09:49.545Z,3.15
2023-03-05T14:12:42.012Z,3.03
2023-03-05T14:15:33.923Z,2.90
2023-03-05T14:18:21.785Z,2.80
2023-03-05T14:21:12.749Z,2.80
2023-03-05T14:24:23.527Z,2.88
2023-03-05T14:27:20.392Z,3.15
2023-03-05T14:30:20.312Z,2.50
2023-03-05T14:33:11.356Z,3.15
2023-03-05T14:36:01.284Z,2.70
2023-03-05T14:38:52.428Z,2.55
2023-03-05T14:41:42.538Z,2.67
2023-03-05T14:44:30.633Z,2.50
2023-03-05T14:47:21.657Z,2.50
2023-03-05T14:50:17.883Z,2.97
2023-03-05T14:53:15.781Z,3.47
2023-03-05T14:56:07.215Z,3.58
2023-03-05T14:58:57.779Z,2.80
2023-03-05T15:01:45.979Z,3.05
2023-03-05T15:04:36.923Z,2.83
2023-03-05T15:07:30.807Z,3.05
2023-03-05T15:10:23.387Z,2.72
2023-03-05T15:13:15.159Z,3.45
2023-03-05T15:16:05.896Z,3.50
2023-03-05T15:18:53.761Z,4.28
2023-03-05T15:21:42.274Z,3.65
2023-03-05T15:24:30.117Z,3.80
2023-03-05T15:27:21.246Z,4.70
2023-03-05T15:30:18.702Z,4.15
2023-03-05T15:33:11.298Z,4.57
2023-03-05T15:36:00.392Z,4.15
2023-03-05T15:38:51.146Z,5.05
2023-03-05T15:41:39.298Z,5.78
2023-03-05T15:44:27.716Z,4.93
2023-03-05T15:47:15.725Z,5.20
2023-03-05T15:50:04.295Z,6.25
2023-03-05T15:52:52.801Z,4.78
2023-03-05T15:55:45.869Z,4.93
2023-03-05T15:58:34.187Z,5.60
2023-03-05T16:01:23.696Z,5.93
2023-03-05T16:04:12.558Z,5.30
2023-03-05T16:07:04.001Z,5.90
2023-03-05T16:09:53.590Z,5.90
2023-03-05T16:12:43.184Z,6.45
2023-03-05T16:15:35.658Z,6.07
2023-03-05T16:18:25.226Z,6.38
2023-03-05T16:21:14.800Z,5.65
2023-03-05T16:24:03.318Z,5.97
2023-03-05T16:26:51.626Z,5.75
2023-03-05T16:29:39.824Z,6.28
2023-03-05T16:32:29.060Z,5.93
2023-03-05T16:35:17.614Z,5.50
2023-03-05T16:38:09.358Z,5.75
2023-03-05T16:41:07.769Z,5.72
2023-03-05T16:44:01.600Z,6.05
2023-03-05T16:46:53.408Z,6.10
2023-03-05T16:49:44.596Z,6.13
2023-03-05T16:52:32.803Z,6.43
2023-03-05T16:55:21.485Z,6.82
2023-03-05T16:58:09.256Z,6.97
2023-03-05T17:00:57.757Z,7.07
2023-03-05T17:03:47.683Z,7.10
2023-03-05T17:06:36.745Z,7.40
2023-03-05T17:09:24.618Z,6.65
2023-03-05T17:12:12.576Z,6.55
2023-03-05T17:15:03.827Z,7.13
2023-03-05T17:17:51.939Z,7.03
2023-03-05T17:20:40.835Z,6.38
2023-03-05T17:23:29.111Z,8.25
2023-03-05T17:26:20.234Z,7.93
2023-03-05T17:29:08.631Z,7.78
2023-03-05T17:31:56.705Z,6.47
2023-03-05T17:34:44.879Z,7.35
2023-03-05T17:37:46.256Z,7.30
2023-03-05T17:40:38.210Z,7.10
2023-03-05T17:43:32.126Z,7.22
2023-03-05T17:46:23.327Z,6.40
2023-03-05T17:49:11.587Z,6.30
2023-03-05T17:51:59.795Z,6.97
2023-03-05T17:54:49.036Z,6.78
2023-03-05T17:57:45.186Z,5.88
2023-03-05T18:00:33.973Z,7.50
2023-03-05T18:03:22.605Z,7.57
2023-03-05T18:06:10.616Z,7.28
2023-03-05T18:08:58.939Z,7.32
2023-03-05T18:11:47.538Z,8.38
2023-03-05T18:14:38.881Z,7.10
2023-03-05T18:17:27.293Z,7.38
2023-03-05T18:20:36.713Z,7.72
2023-03-05T18:23:29.032Z,7.82
2023-03-05T18:26:25.318Z,7.90
2023-03-05T18:29:18.542Z,8.18
2023-03-05T18:32:11.063Z,8.23
2023-03-05T18:35:02.235Z,7.72
2023-03-05T18:37:50.761Z,9.10
2023-03-05T18:40:41.033Z,7.63
2023-03-05T18:43:29.014Z,7.75
2023-03-05T18:46:22.812Z,7.78
2023-03-05T18:49:11.230Z,9.68
2023-03-05T18:52:03.942Z,9.43
2023-03-05T18:54:51.980Z,9.70
2023-03-05T18:57:40.336Z,8.70
2023-03-05T19:00:32.250Z,10.32
2023-03-05T19:03:23.301Z,9.52
2023-03-05T19:06:14.400Z,9.15
2023-03-05T19:09:08.797Z,8.98
2023-03-05T19:11:58.971Z,8.38
2023-03-05T19:14:52.404Z,8.70
2023-03-05T19:17:42.196Z,21.40
2023-03-05T19:20:31.102Z,13.40
2023-03-05T19:23:19.414Z,11.55
2023-03-05T19:26:10.794Z,11.15
2023-03-05T19:29:06.367Z,10.23
2023-03-05T19:31:55.602Z,9.68
2023-03-05T19:34:57.713Z,9.85
2023-03-05T19:37:49.070Z,9.23
2023-03-05T19:40:40.130Z,9.50
2023-03-05T19:43:33.903Z,9.45
2023-03-05T19:46:23.218Z,9.50
2023-03-05T19:49:12.085Z,9.30
2023-03-05T19:52:00.757Z,9.02
2023-03-05T19:54:52.105Z,9.77
2023-03-05T19:57:42.828Z,9.68
2023-03-05T20:00:33.494Z,9.63
2023-03-05T20:03:52.217Z,8.25
2023-03-05T20:06:41.175Z,9.27
2023-03-05T20:09:34.218Z,8.65
2023-03-05T20:12:23.838Z,9.07
2023-03-05T20:15:15.265Z,9.38
2023-03-05T20:18:03.876Z,9.43
2023-03-05T20:20:55.324Z,8.98
2023-03-05T20:23:43.363Z,9.82
2023-03-05T20:26:33.758Z,10.15
2023-03-05T20:29:22.684Z,8.63
2023-03-05T20:32:19.581Z,9.40
2023-03-05T20:35:11.402Z,10.00
2023-03-05T20:38:26.223Z,9.43
2023-03-05T20:41:19.354Z,9.73
2023-03-05T20:44:09.209Z,10.23
2023-03-05T20:47:12.590Z,9.77
2023-03-05T20:50:01.120Z,8.40
2023-03-05T20:52:49.315Z,8.90
2023-03-05T20:55:39.858Z,9.07
2023-03-05T20:58:28.776Z,9.30
2023-03-05T21:01:17.849Z,10.30
2023-03-05T21:04:14.794Z,10.43
2023-03-05T21:07:04.429Z,9.43
2023-03-05T21:10:00.291Z,10.00
2023-03-05T21:12:55.401Z,10.30
2023-03-05T21:15:50.745Z,10.73
2023-03-05T21:18:45.230Z,10.80
2023-03-05T21:21:43.485Z,10.05
2023-03-05T21:24:46.809Z,10.80
2023-03-05T21:27:41.218Z,10.38
2023-03-05T21:30:49.941Z,11.30
2023-03-05T21:33:43.771Z,11.57
2023-03-05T21:36:32.342Z,12.63
2023-03-05T21:39:20.452Z,12.20
2023-03-05T21:42:11.932Z,13.43
2023-03-05T21:45:01.357Z,13.52
2023-03-05T21:47:53.298Z,11.63
2023-03-05T21:50:45.256Z,11.82
2023-03-05T21:53:33.876Z,11.80
2023-03-05T21:56:27.433Z,12.20
2023-03-05T21:59:18.277Z,11.43
2023-03-05T22:02:07.348Z,12.52
2023-03-05T22:04:55.744Z,13.27
2023-03-05T22:07:44.624Z,13.45
2023-03-05T22:10:32.874Z,12.45
2023-03-05T22:13:21.159Z,12.90
2023-03-05T22:16:10.271Z,13.27
2023-03-05T22:18:58.941Z,13.55
2023-03-05T22:21:48.109Z,13.27
2023-03-05T22:24:43.533Z,13.63
2023-03-05T22:27:32.193Z,12.60
2023-03-05T22:30:23.097Z,12.77
2023-03-05T22:33:11.434Z,13.38
2023-03-05T22:35:59.688Z,12.65
2023-03-05T22:38:50.469Z,12.20
2023-03-05T22:41:42.269Z,12.15
2023-03-05T22:44:32.738Z,12.55
2023-03-05T22:47:20.821Z,11.25
2023-03-05T22:50:10.798Z,12.45
2023-03-05T22:53:14.780Z,11.45
2023-03-05T22:56:18.760Z,11.98
2023-03-05T23:05:16.820Z,11.00
2023-03-05T23:08:05.800Z,11.33
2023-03-05T23:10:53.817Z,11.65
2023-03-05T23:13:42.569Z,10.98
2023-03-05T23:16:31.336Z,11.32
2023-03-05T23:19:19.314Z,11.13
2023-03-05T23:22:12.208Z,11.27
2023-03-05T23:25:02.719Z,11.75
2023-03-05T23:27:51.101Z,10.68
2023-03-05T23:30:39.823Z,11.30
2023-03-05T23:33:28.304Z,11.07
2023-03-05T23:36:20.696Z,12.02
2023-03-05T23:39:09.456Z,11.98
2023-03-05T23:41:57.949Z,10.57
2023-03-05T23:44:48.896Z,10.18
2023-03-05T23:47:37.480Z,10.88
2023-03-05T23:50:38.802Z,10.52
2023-03-05T23:53:33.047Z,10.98
2023-03-05T23:56:21.641Z,10.65
2023-03-05T23:59:09.536Z,10.40
